sensor_id;sensor_type;location;lat;lon;timestamp;P1;durP1;ratioP1;P2;durP2;ratioP2
62543;SDS011;48597;49.030;1.822;2023-06-26T00:01:27;2.05;;;1.85;;
62543;SDS011;48597;49.030;1.822;2023-06-26T00:03:59;2.17;;;1.95;;
62543;SDS011;48597;49.030;1.822;2023-06-26T00:06:25;2.42;;;1.70;;
62543;SDS011;48597;49.030;1.822;2023-06-26T00:08:54;3.10;;;1.92;;
62543;SDS011;48597;49.030;1.822;2023-06-26T00:11:20;3.60;;;1.90;;
62543;SDS011;48597;49.030;1.822;2023-06-26T00:13:47;3.08;;;1.90;;
62543;SDS011;48597;49.030;1.822;2023-06-26T00:16:13;2.42;;;1.90;;
62543;SDS011;48597;49.030;1.822;2023-06-26T00:18:38;2.05;;;1.60;;
62543;SDS011;48597;49.030;1.822;2023-06-26T00:21:03;3.28;;;1.63;;
62543;SDS011;48597;49.030;1.822;2023-06-26T00:23:29;4.22;;;2.10;;
62543;SDS011;48597;49.030;1.822;2023-06-26T00:25:56;2.10;;;1.67;;
62543;SDS011;48597;49.030;1.822;2023-06-26T00:28:21;3.00;;;1.50;;
62543;SDS011;48597;49.030;1.822;2023-06-26T00:30:47;2.00;;;1.60;;
62543;SDS011;48597;49.030;1.822;2023-06-26T00:33:12;1.90;;;1.55;;
62543;SDS011;48597;49.030;1.822;2023-06-26T00:35:38;2.85;;;1.67;;
62543;SDS011;48597;49.030;1.822;2023-06-26T00:38:03;1.80;;;1.60;;
62543;SDS011;48597;49.030;1.822;2023-06-26T00:40:29;2.78;;;1.77;;
62543;SDS011;48597;49.030;1.822;2023-06-26T00:42:54;2.97;;;1.60;;
62543;SDS011;48597;49.030;1.822;2023-06-26T00:45:20;1.65;;;1.50;;
62543;SDS011;48597;49.030;1.822;2023-06-26T00:47:45;2.63;;;1.60;;
62543;SDS011;48597;49.030;1.822;2023-06-26T00:50:11;1.25;;;1.15;;
62543;SDS011;48597;49.030;1.822;2023-06-26T00:52:37;2.20;;;1.67;;
62543;SDS011;48597;49.030;1.822;2023-06-26T00:55:03;1.63;;;1.50;;
62543;SDS011;48597;49.030;1.822;2023-06-26T00:57:29;2.70;;;1.52;;
62543;SDS011;48597;49.030;1.822;2023-06-26T00:59:55;2.38;;;1.65;;
62543;SDS011;48597;49.030;1.822;2023-06-26T01:02:21;3.05;;;1.52;;
62543;SDS011;48597;49.030;1.822;2023-06-26T01:04:48;2.30;;;1.35;;
62543;SDS011;48597;49.030;1.822;2023-06-26T01:07:15;1.88;;;1.27;;
62543;SDS011;48597;49.030;1.822;2023-06-26T01:09:43;1.85;;;1.30;;
62543;SDS011;48597;49.030;1.822;2023-06-26T01:12:11;1.63;;;1.13;;
62543;SDS011;48597;49.030;1.822;2023-06-26T01:14:36;1.50;;;1.25;;
62543;SDS011;48597;49.030;1.822;2023-06-26T01:17:02;2.75;;;1.75;;
62543;SDS011;48597;49.030;1.822;2023-06-26T01:19:29;2.85;;;1.50;;
62543;SDS011;48597;49.030;1.822;2023-06-26T01:22:00;2.67;;;1.25;;
62543;SDS011;48597;49.030;1.822;2023-06-26T01:24:42;2.95;;;1.55;;
62543;SDS011;48597;49.030;1.822;2023-06-26T01:27:16;4.20;;;1.55;;
62543;SDS011;48597;49.030;1.822;2023-06-26T01:29:47;3.83;;;1.52;;
62543;SDS011;48597;49.030;1.822;2023-06-26T01:32:14;2.88;;;1.27;;
62543;SDS011;48597;49.030;1.822;2023-06-26T01:34:40;2.40;;;1.50;;
62543;SDS011;48597;49.030;1.822;2023-06-26T01:37:05;1.73;;;1.25;;
62543;SDS011;48597;49.030;1.822;2023-06-26T01:39:31;2.42;;;1.40;;
62543;SDS011;48597;49.030;1.822;2023-06-26T01:41:56;1.92;;;1.10;;
62543;SDS011;48597;49.030;1.822;2023-06-26T01:44:28;2.50;;;1.40;;
62543;SDS011;48597;49.030;1.822;2023-06-26T01:49:33;2.63;;;1.23;;
62543;SDS011;48597;49.030;1.822;2023-06-26T01:54:33;2.00;;;1.02;;
62543;SDS011;48597;49.030;1.822;2023-06-26T01:57:04;1.77;;;1.05;;
62543;SDS011;48597;49.030;1.822;2023-06-26T01:59:33;3.35;;;1.40;;
62543;SDS011;48597;49.030;1.822;2023-06-26T02:02:00;1.90;;;1.20;;
62543;SDS011;48597;49.030;1.822;2023-06-26T02:04:26;2.33;;;1.15;;
62543;SDS011;48597;49.030;1.822;2023-06-26T02:06:51;1.98;;;1.23;;
62543;SDS011;48597;49.030;1.822;2023-06-26T02:09:17;2.47;;;1.17;;
62543;SDS011;48597;49.030;1.822;2023-06-26T02:11:42;2.38;;;1.00;;
62543;SDS011;48597;49.030;1.822;2023-06-26T02:14:08;2.33;;;1.00;;
62543;SDS011;48597;49.030;1.822;2023-06-26T02:16:34;2.72;;;1.17;;
62543;SDS011;48597;49.030;1.822;2023-06-26T02:18:59;1.80;;;1.20;;
62543;SDS011;48597;49.030;1.822;2023-06-26T02:21:25;3.30;;;1.17;;
62543;SDS011;48597;49.030;1.822;2023-06-26T02:23:50;1.73;;;1.10;;
62543;SDS011;48597;49.030;1.822;2023-06-26T02:26:15;2.88;;;1.20;;
62543;SDS011;48597;49.030;1.822;2023-06-26T02:28:41;1.42;;;1.00;;
62543;SDS011;48597;49.030;1.822;2023-06-26T02:31:06;1.60;;;1.00;;
62543;SDS011;48597;49.030;1.822;2023-06-26T02:33:32;2.80;;;1.30;;
62543;SDS011;48597;49.030;1.822;2023-06-26T02:35:57;3.15;;;1.10;;
62543;SDS011;48597;49.030;1.822;2023-06-26T02:38:22;2.25;;;1.00;;
62543;SDS011;48597;49.030;1.822;2023-06-26T02:40:48;1.58;;;1.02;;
62543;SDS011;48597;49.030;1.822;2023-06-26T02:43:13;1.92;;;0.98;;
62543;SDS011;48597;49.030;1.822;2023-06-26T02:45:39;1.63;;;0.90;;
62543;SDS011;48597;49.030;1.822;2023-06-26T02:48:04;1.90;;;1.10;;
62543;SDS011;48597;49.030;1.822;2023-06-26T02:50:30;2.28;;;1.00;;
62543;SDS011;48597;49.030;1.822;2023-06-26T02:52:55;2.45;;;1.15;;
62543;SDS011;48597;49.030;1.822;2023-06-26T02:55:20;1.52;;;0.98;;
62543;SDS011;48597;49.030;1.822;2023-06-26T02:57:46;2.08;;;1.20;;
62543;SDS011;48597;49.030;1.822;2023-06-26T03:00:11;1.25;;;1.10;;
62543;SDS011;48597;49.030;1.822;2023-06-26T03:02:38;2.88;;;1.10;;
62543;SDS011;48597;49.030;1.822;2023-06-26T03:05:03;2.08;;;1.20;;
62543;SDS011;48597;49.030;1.822;2023-06-26T03:07:29;1.75;;;1.13;;
62543;SDS011;48597;49.030;1.822;2023-06-26T03:09:54;3.53;;;1.30;;
62543;SDS011;48597;49.030;1.822;2023-06-26T03:12:20;2.80;;;1.00;;
62543;SDS011;48597;49.030;1.822;2023-06-26T03:14:45;2.95;;;1.35;;
62543;SDS011;48597;49.030;1.822;2023-06-26T03:17:10;2.60;;;1.25;;
62543;SDS011;48597;49.030;1.822;2023-06-26T03:19:36;4.88;;;1.50;;
62543;SDS011;48597;49.030;1.822;2023-06-26T03:22:01;2.80;;;1.17;;
62543;SDS011;48597;49.030;1.822;2023-06-26T03:24:28;1.92;;;1.17;;
62543;SDS011;48597;49.030;1.822;2023-06-26T03:26:54;2.70;;;1.35;;
62543;SDS011;48597;49.030;1.822;2023-06-26T03:29:19;2.65;;;1.10;;
62543;SDS011;48597;49.030;1.822;2023-06-26T03:31:44;2.20;;;1.10;;
62543;SDS011;48597;49.030;1.822;2023-06-26T03:34:10;1.60;;;1.00;;
62543;SDS011;48597;49.030;1.822;2023-06-26T03:36:35;1.90;;;1.27;;
62543;SDS011;48597;49.030;1.822;2023-06-26T03:39:01;2.28;;;1.17;;
62543;SDS011;48597;49.030;1.822;2023-06-26T03:41:26;1.75;;;1.15;;
62543;SDS011;48597;49.030;1.822;2023-06-26T03:43:51;1.92;;;1.10;;
62543;SDS011;48597;49.030;1.822;2023-06-26T03:46:17;1.80;;;1.00;;
62543;SDS011;48597;49.030;1.822;2023-06-26T03:48:42;2.63;;;1.23;;
62543;SDS011;48597;49.030;1.822;2023-06-26T03:51:07;3.25;;;1.08;;
62543;SDS011;48597;49.030;1.822;2023-06-26T03:53:33;2.30;;;1.17;;
62543;SDS011;48597;49.030;1.822;2023-06-26T03:55:59;2.80;;;1.10;;
62543;SDS011;48597;49.030;1.822;2023-06-26T03:58:24;3.75;;;1.05;;
62543;SDS011;48597;49.030;1.822;2023-06-26T04:00:50;2.22;;;1.10;;
62543;SDS011;48597;49.030;1.822;2023-06-26T04:03:16;2.05;;;1.17;;
62543;SDS011;48597;49.030;1.822;2023-06-26T04:05:41;2.17;;;1.00;;
62543;SDS011;48597;49.030;1.822;2023-06-26T04:08:07;2.08;;;1.10;;
62543;SDS011;48597;49.030;1.822;2023-06-26T04:10:33;2.40;;;1.00;;
62543;SDS011;48597;49.030;1.822;2023-06-26T04:12:58;1.92;;;1.10;;
62543;SDS011;48597;49.030;1.822;2023-06-26T04:15:23;3.20;;;1.48;;
62543;SDS011;48597;49.030;1.822;2023-06-26T04:17:49;1.95;;;1.15;;
62543;SDS011;48597;49.030;1.822;2023-06-26T04:20:14;1.58;;;1.00;;
62543;SDS011;48597;49.030;1.822;2023-06-26T04:22:40;0.98;;;0.85;;
62543;SDS011;48597;49.030;1.822;2023-06-26T04:25:05;2.65;;;1.23;;
62543;SDS011;48597;49.030;1.822;2023-06-26T04:27:30;2.85;;;1.10;;
62543;SDS011;48597;49.030;1.822;2023-06-26T04:29:56;2.88;;;1.20;;
62543;SDS011;48597;49.030;1.822;2023-06-26T04:32:21;1.50;;;0.95;;
62543;SDS011;48597;49.030;1.822;2023-06-26T04:34:47;2.13;;;1.20;;
62543;SDS011;48597;49.030;1.822;2023-06-26T04:37:13;1.90;;;1.02;;
62543;SDS011;48597;49.030;1.822;2023-06-26T04:39:42;2.58;;;1.20;;
62543;SDS011;48597;49.030;1.822;2023-06-26T04:42:07;2.20;;;1.02;;
62543;SDS011;48597;49.030;1.822;2023-06-26T04:44:33;2.85;;;1.20;;
62543;SDS011;48597;49.030;1.822;2023-06-26T04:46:59;2.20;;;1.30;;
62543;SDS011;48597;49.030;1.822;2023-06-26T04:49:24;3.03;;;1.10;;
62543;SDS011;48597;49.030;1.822;2023-06-26T04:51:49;2.05;;;1.30;;
62543;SDS011;48597;49.030;1.822;2023-06-26T04:54:16;1.92;;;1.15;;
62543;SDS011;48597;49.030;1.822;2023-06-26T04:56:41;2.85;;;1.25;;
62543;SDS011;48597;49.030;1.822;2023-06-26T04:59:06;2.92;;;1.30;;
62543;SDS011;48597;49.030;1.822;2023-06-26T05:01:32;2.72;;;1.15;;
62543;SDS011;48597;49.030;1.822;2023-06-26T05:04:01;1.65;;;1.30;;
62543;SDS011;48597;49.030;1.822;2023-06-26T05:06:27;1.38;;;1.05;;
62543;SDS011;48597;49.030;1.822;2023-06-26T05:08:52;1.98;;;1.30;;
62543;SDS011;48597;49.030;1.822;2023-06-26T05:11:18;2.88;;;1.30;;
62543;SDS011;48597;49.030;1.822;2023-06-26T05:13:43;2.95;;;1.30;;
62543;SDS011;48597;49.030;1.822;2023-06-26T05:16:09;3.70;;;1.33;;
62543;SDS011;48597;49.030;1.822;2023-06-26T05:18:35;2.20;;;1.10;;
62543;SDS011;48597;49.030;1.822;2023-06-26T05:21:01;3.50;;;1.33;;
62543;SDS011;48597;49.030;1.822;2023-06-26T05:23:27;1.80;;;1.25;;
62543;SDS011;48597;49.030;1.822;2023-06-26T05:25:56;2.22;;;1.17;;
62543;SDS011;48597;49.030;1.822;2023-06-26T05:28:22;1.73;;;1.00;;
62543;SDS011;48597;49.030;1.822;2023-06-26T05:30:49;2.33;;;1.10;;
62543;SDS011;48597;49.030;1.822;2023-06-26T05:33:17;2.30;;;1.23;;
62543;SDS011;48597;49.030;1.822;2023-06-26T05:35:47;3.53;;;1.27;;
62543;SDS011;48597;49.030;1.822;2023-06-26T05:38:14;2.58;;;1.17;;
62543;SDS011;48597;49.030;1.822;2023-06-26T05:40:40;1.67;;;1.13;;
62543;SDS011;48597;49.030;1.822;2023-06-26T05:43:06;2.00;;;1.10;;
62543;SDS011;48597;49.030;1.822;2023-06-26T05:45:32;3.38;;;1.20;;
62543;SDS011;48597;49.030;1.822;2023-06-26T05:47:58;2.00;;;1.20;;
62543;SDS011;48597;49.030;1.822;2023-06-26T05:50:23;2.17;;;1.20;;
62543;SDS011;48597;49.030;1.822;2023-06-26T05:52:49;2.47;;;1.10;;
62543;SDS011;48597;49.030;1.822;2023-06-26T05:55:15;2.58;;;1.50;;
62543;SDS011;48597;49.030;1.822;2023-06-26T05:57:40;2.10;;;1.25;;
62543;SDS011;48597;49.030;1.822;2023-06-26T06:00:07;3.47;;;1.13;;
62543;SDS011;48597;49.030;1.822;2023-06-26T06:02:36;1.75;;;1.10;;
62543;SDS011;48597;49.030;1.822;2023-06-26T06:05:02;1.58;;;1.10;;
62543;SDS011;48597;49.030;1.822;2023-06-26T06:07:28;3.55;;;1.40;;
62543;SDS011;48597;49.030;1.822;2023-06-26T06:09:54;3.50;;;1.38;;
62543;SDS011;48597;49.030;1.822;2023-06-26T06:12:20;2.28;;;1.23;;
62543;SDS011;48597;49.030;1.822;2023-06-26T06:14:45;2.47;;;1.20;;
62543;SDS011;48597;49.030;1.822;2023-06-26T06:17:10;2.60;;;1.42;;
62543;SDS011;48597;49.030;1.822;2023-06-26T06:19:36;2.45;;;1.35;;
62543;SDS011;48597;49.030;1.822;2023-06-26T06:22:01;2.97;;;1.40;;
62543;SDS011;48597;49.030;1.822;2023-06-26T06:24:27;2.92;;;1.38;;
62543;SDS011;48597;49.030;1.822;2023-06-26T06:26:52;2.45;;;1.42;;
62543;SDS011;48597;49.030;1.822;2023-06-26T06:29:18;2.85;;;1.10;;
62543;SDS011;48597;49.030;1.822;2023-06-26T06:31:44;2.00;;;1.10;;
62543;SDS011;48597;49.030;1.822;2023-06-26T06:34:10;2.42;;;1.40;;
62543;SDS011;48597;49.030;1.822;2023-06-26T06:36:35;3.05;;;1.33;;
62543;SDS011;48597;49.030;1.822;2023-06-26T06:39:00;3.05;;;1.50;;
62543;SDS011;48597;49.030;1.822;2023-06-26T06:41:26;2.38;;;1.23;;
62543;SDS011;48597;49.030;1.822;2023-06-26T06:43:51;3.22;;;1.40;;
62543;SDS011;48597;49.030;1.822;2023-06-26T06:46:16;2.47;;;1.10;;
62543;SDS011;48597;49.030;1.822;2023-06-26T06:48:42;2.65;;;1.35;;
62543;SDS011;48597;49.030;1.822;2023-06-26T06:51:07;3.03;;;1.20;;
62543;SDS011;48597;49.030;1.822;2023-06-26T06:53:33;3.13;;;1.00;;
62543;SDS011;48597;49.030;1.822;2023-06-26T06:55:58;2.42;;;1.10;;
62543;SDS011;48597;49.030;1.822;2023-06-26T06:58:23;2.65;;;1.45;;
62543;SDS011;48597;49.030;1.822;2023-06-26T07:00:49;2.65;;;1.38;;
62543;SDS011;48597;49.030;1.822;2023-06-26T07:03:16;2.58;;;1.13;;
62543;SDS011;48597;49.030;1.822;2023-06-26T07:05:41;1.95;;;1.20;;
62543;SDS011;48597;49.030;1.822;2023-06-26T07:08:07;1.77;;;1.10;;
62543;SDS011;48597;49.030;1.822;2023-06-26T07:10:33;2.40;;;1.27;;
62543;SDS011;48597;49.030;1.822;2023-06-26T07:12:59;1.73;;;1.10;;
62543;SDS011;48597;49.030;1.822;2023-06-26T07:15:24;2.03;;;1.48;;
62543;SDS011;48597;49.030;1.822;2023-06-26T07:17:49;3.42;;;1.30;;
62543;SDS011;48597;49.030;1.822;2023-06-26T07:20:15;2.00;;;1.20;;
62543;SDS011;48597;49.030;1.822;2023-06-26T07:22:41;2.83;;;1.10;;
62543;SDS011;48597;49.030;1.822;2023-06-26T07:25:07;2.08;;;1.40;;
62543;SDS011;48597;49.030;1.822;2023-06-26T07:27:36;1.83;;;1.30;;
62543;SDS011;48597;49.030;1.822;2023-06-26T07:30:02;4.00;;;1.33;;
62543;SDS011;48597;49.030;1.822;2023-06-26T07:32:28;1.58;;;1.20;;
62543;SDS011;48597;49.030;1.822;2023-06-26T07:34:54;2.30;;;1.10;;
62543;SDS011;48597;49.030;1.822;2023-06-26T07:37:19;2.65;;;1.30;;
62543;SDS011;48597;49.030;1.822;2023-06-26T07:39:45;2.47;;;1.40;;
62543;SDS011;48597;49.030;1.822;2023-06-26T07:42:10;2.67;;;1.20;;
62543;SDS011;48597;49.030;1.822;2023-06-26T07:44:36;2.50;;;1.20;;
62543;SDS011;48597;49.030;1.822;2023-06-26T07:47:01;1.90;;;1.10;;
62543;SDS011;48597;49.030;1.822;2023-06-26T07:49:27;1.95;;;1.20;;
62543;SDS011;48597;49.030;1.822;2023-06-26T07:51:52;1.13;;;1.00;;
62543;SDS011;48597;49.030;1.822;2023-06-26T07:54:17;2.38;;;1.08;;
62543;SDS011;48597;49.030;1.822;2023-06-26T07:56:59;2.17;;;1.10;;
62543;SDS011;48597;49.030;1.822;2023-06-26T07:59:27;1.70;;;1.10;;
62543;SDS011;48597;49.030;1.822;2023-06-26T08:01:55;2.13;;;1.00;;
62543;SDS011;48597;49.030;1.822;2023-06-26T08:04:22;1.48;;;1.20;;
62543;SDS011;48597;49.030;1.822;2023-06-26T08:06:50;2.78;;;1.35;;
62543;SDS011;48597;49.030;1.822;2023-06-26T08:09:17;1.30;;;1.00;;
62543;SDS011;48597;49.030;1.822;2023-06-26T08:11:43;1.20;;;1.10;;
62543;SDS011;48597;49.030;1.822;2023-06-26T08:14:09;2.22;;;1.08;;
62543;SDS011;48597;49.030;1.822;2023-06-26T08:16:36;1.45;;;1.05;;
62543;SDS011;48597;49.030;1.822;2023-06-26T08:19:02;1.95;;;1.20;;
62543;SDS011;48597;49.030;1.822;2023-06-26T08:21:27;1.98;;;1.10;;
62543;SDS011;48597;49.030;1.822;2023-06-26T08:23:54;2.53;;;1.10;;
62543;SDS011;48597;49.030;1.822;2023-06-26T08:26:19;2.20;;;1.20;;
62543;SDS011;48597;49.030;1.822;2023-06-26T08:28:44;1.27;;;0.88;;
62543;SDS011;48597;49.030;1.822;2023-06-26T08:31:10;1.58;;;1.10;;
62543;SDS011;48597;49.030;1.822;2023-06-26T08:33:35;3.28;;;1.30;;
62543;SDS011;48597;49.030;1.822;2023-06-26T08:36:01;2.63;;;1.20;;
62543;SDS011;48597;49.030;1.822;2023-06-26T08:38:26;2.08;;;1.20;;
62543;SDS011;48597;49.030;1.822;2023-06-26T08:40:52;2.35;;;1.00;;
62543;SDS011;48597;49.030;1.822;2023-06-26T08:43:17;1.83;;;1.10;;
62543;SDS011;48597;49.030;1.822;2023-06-26T08:45:43;1.20;;;0.98;;
62543;SDS011;48597;49.030;1.822;2023-06-26T08:48:08;3.05;;;1.20;;
62543;SDS011;48597;49.030;1.822;2023-06-26T08:50:35;1.95;;;1.10;;
62543;SDS011;48597;49.030;1.822;2023-06-26T08:55:53;1.83;;;1.00;;
62543;SDS011;48597;49.030;1.822;2023-06-26T08:58:22;2.05;;;1.08;;
62543;SDS011;48597;49.030;1.822;2023-06-26T09:00:47;0.98;;;0.90;;
62543;SDS011;48597;49.030;1.822;2023-06-26T09:03:14;2.17;;;1.20;;
62543;SDS011;48597;49.030;1.822;2023-06-26T09:05:40;1.83;;;1.10;;
62543;SDS011;48597;49.030;1.822;2023-06-26T09:08:06;1.20;;;1.02;;
62543;SDS011;48597;49.030;1.822;2023-06-26T09:10:32;1.33;;;1.05;;
62543;SDS011;48597;49.030;1.822;2023-06-26T09:12:58;1.15;;;1.00;;
62543;SDS011;48597;49.030;1.822;2023-06-26T09:15:24;2.90;;;1.00;;
62543;SDS011;48597;49.030;1.822;2023-06-26T09:17:49;1.73;;;1.20;;
62543;SDS011;48597;49.030;1.822;2023-06-26T09:20:15;1.98;;;1.02;;
62543;SDS011;48597;49.030;1.822;2023-06-26T09:22:41;2.17;;;1.25;;
62543;SDS011;48597;49.030;1.822;2023-06-26T09:25:08;2.03;;;0.93;;
62543;SDS011;48597;49.030;1.822;2023-06-26T09:27:35;2.10;;;1.13;;
62543;SDS011;48597;49.030;1.822;2023-06-26T09:30:04;2.40;;;1.10;;
62543;SDS011;48597;49.030;1.822;2023-06-26T09:32:34;2.38;;;1.17;;
62543;SDS011;48597;49.030;1.822;2023-06-26T09:35:02;2.45;;;1.20;;
62543;SDS011;48597;49.030;1.822;2023-06-26T09:37:28;2.60;;;1.30;;
62543;SDS011;48597;49.030;1.822;2023-06-26T09:39:54;2.13;;;1.20;;
62543;SDS011;48597;49.030;1.822;2023-06-26T09:42:19;1.80;;;1.30;;
62543;SDS011;48597;49.030;1.822;2023-06-26T09:44:45;2.63;;;0.98;;
62543;SDS011;48597;49.030;1.822;2023-06-26T09:47:12;1.45;;;1.10;;
62543;SDS011;48597;49.030;1.822;2023-06-26T09:49:40;1.80;;;1.00;;
62543;SDS011;48597;49.030;1.822;2023-06-26T09:52:07;2.42;;;1.20;;
62543;SDS011;48597;49.030;1.822;2023-06-26T09:54:33;2.55;;;1.35;;
62543;SDS011;48597;49.030;1.822;2023-06-26T09:57:08;2.10;;;1.35;;
62543;SDS011;48597;49.030;1.822;2023-06-26T09:59:35;1.67;;;1.20;;
62543;SDS011;48597;49.030;1.822;2023-06-26T10:02:01;3.53;;;1.63;;
62543;SDS011;48597;49.030;1.822;2023-06-26T10:04:27;3.15;;;1.30;;
62543;SDS011;48597;49.030;1.822;2023-06-26T10:06:54;3.17;;;1.42;;
62543;SDS011;48597;49.030;1.822;2023-06-26T10:09:22;2.97;;;1.30;;
62543;SDS011;48597;49.030;1.822;2023-06-26T10:11:53;2.53;;;1.30;;
62543;SDS011;48597;49.030;1.822;2023-06-26T10:14:27;2.58;;;1.40;;
62543;SDS011;48597;49.030;1.822;2023-06-26T10:16:59;4.18;;;1.30;;
62543;SDS011;48597;49.030;1.822;2023-06-26T10:19:28;2.58;;;1.50;;
62543;SDS011;48597;49.030;1.822;2023-06-26T10:21:56;3.95;;;1.20;;
62543;SDS011;48597;49.030;1.822;2023-06-26T10:24:23;6.40;;;1.63;;
62543;SDS011;48597;49.030;1.822;2023-06-26T10:27:15;3.42;;;1.40;;
62543;SDS011;48597;49.030;1.822;2023-06-26T10:29:42;3.60;;;1.65;;
62543;SDS011;48597;49.030;1.822;2023-06-26T10:32:13;2.55;;;1.33;;
62543;SDS011;48597;49.030;1.822;2023-06-26T10:34:40;2.70;;;1.42;;
62543;SDS011;48597;49.030;1.822;2023-06-26T10:37:05;2.78;;;1.38;;
62543;SDS011;48597;49.030;1.822;2023-06-26T10:39:47;1.45;;;1.15;;
62543;SDS011;48597;49.030;1.822;2023-06-26T10:42:17;2.70;;;1.40;;
62543;SDS011;48597;49.030;1.822;2023-06-26T10:44:45;3.33;;;1.33;;
62543;SDS011;48597;49.030;1.822;2023-06-26T10:47:33;2.85;;;1.20;;
62543;SDS011;48597;49.030;1.822;2023-06-26T10:50:40;4.93;;;1.77;;
62543;SDS011;48597;49.030;1.822;2023-06-26T10:53:15;1.80;;;1.20;;
62543;SDS011;48597;49.030;1.822;2023-06-26T10:55:59;2.22;;;1.33;;
62543;SDS011;48597;49.030;1.822;2023-06-26T10:58:47;2.13;;;1.35;;
62543;SDS011;48597;49.030;1.822;2023-06-26T11:01:25;2.03;;;1.23;;
62543;SDS011;48597;49.030;1.822;2023-06-26T11:06:29;2.33;;;1.10;;
62543;SDS011;48597;49.030;1.822;2023-06-26T11:09:15;1.98;;;1.35;;
62543;SDS011;48597;49.030;1.822;2023-06-26T11:14:21;1.67;;;1.30;;
62543;SDS011;48597;49.030;1.822;2023-06-26T11:16:48;2.63;;;1.10;;
62543;SDS011;48597;49.030;1.822;2023-06-26T11:19:14;2.42;;;1.23;;
62543;SDS011;48597;49.030;1.822;2023-06-26T11:21:41;2.30;;;1.30;;
62543;SDS011;48597;49.030;1.822;2023-06-26T11:24:07;2.33;;;1.40;;
62543;SDS011;48597;49.030;1.822;2023-06-26T11:26:40;4.13;;;1.73;;
62543;SDS011;48597;49.030;1.822;2023-06-26T11:29:07;3.17;;;1.50;;
62543;SDS011;48597;49.030;1.822;2023-06-26T11:31:33;2.03;;;1.10;;
62543;SDS011;48597;49.030;1.822;2023-06-26T11:34:10;1.60;;;1.20;;
62543;SDS011;48597;49.030;1.822;2023-06-26T11:36:37;2.05;;;1.30;;
62543;SDS011;48597;49.030;1.822;2023-06-26T11:39:06;2.35;;;1.27;;
62543;SDS011;48597;49.030;1.822;2023-06-26T11:41:32;1.38;;;1.10;;
62543;SDS011;48597;49.030;1.822;2023-06-26T11:44:06;1.55;;;1.45;;
62543;SDS011;48597;49.030;1.822;2023-06-26T11:46:34;1.60;;;1.17;;
62543;SDS011;48597;49.030;1.822;2023-06-26T11:49:02;2.78;;;1.42;;
62543;SDS011;48597;49.030;1.822;2023-06-26T11:53:56;2.60;;;1.05;;
62543;SDS011;48597;49.030;1.822;2023-06-26T11:56:22;2.45;;;1.10;;
62543;SDS011;48597;49.030;1.822;2023-06-26T12:01:37;1.77;;;1.20;;
62543;SDS011;48597;49.030;1.822;2023-06-26T12:04:08;2.25;;;1.20;;
62543;SDS011;48597;49.030;1.822;2023-06-26T12:06:35;2.33;;;1.20;;
62543;SDS011;48597;49.030;1.822;2023-06-26T12:09:02;2.33;;;1.30;;
62543;SDS011;48597;49.030;1.822;2023-06-26T12:11:30;1.92;;;1.30;;
62543;SDS011;48597;49.030;1.822;2023-06-26T12:13:57;2.30;;;1.40;;
62543;SDS011;48597;49.030;1.822;2023-06-26T12:16:23;3.45;;;1.30;;
62543;SDS011;48597;49.030;1.822;2023-06-26T12:18:50;13.63;;;1.55;;
62543;SDS011;48597;49.030;1.822;2023-06-26T12:24:05;3.97;;;1.40;;
62543;SDS011;48597;49.030;1.822;2023-06-26T12:26:33;8.73;;;1.75;;
62543;SDS011;48597;49.030;1.822;2023-06-26T12:31:29;3.13;;;1.35;;
62543;SDS011;48597;49.030;1.822;2023-06-26T12:33:56;2.00;;;1.40;;
62543;SDS011;48597;49.030;1.822;2023-06-26T12:36:22;3.05;;;1.30;;
62543;SDS011;48597;49.030;1.822;2023-06-26T12:38:48;2.80;;;1.40;;
62543;SDS011;48597;49.030;1.822;2023-06-26T12:41:14;2.20;;;1.10;;
62543;SDS011;48597;49.030;1.822;2023-06-26T12:43:41;4.88;;;1.45;;
62543;SDS011;48597;49.030;1.822;2023-06-26T12:46:07;3.03;;;1.20;;
62543;SDS011;48597;49.030;1.822;2023-06-26T12:48:39;3.30;;;1.42;;
62543;SDS011;48597;49.030;1.822;2023-06-26T12:51:11;2.95;;;1.15;;
62543;SDS011;48597;49.030;1.822;2023-06-26T12:53:38;2.78;;;1.00;;
62543;SDS011;48597;49.030;1.822;2023-06-26T12:56:07;3.08;;;1.20;;
62543;SDS011;48597;49.030;1.822;2023-06-26T12:58:33;2.50;;;1.23;;
62543;SDS011;48597;49.030;1.822;2023-06-26T13:01:02;6.60;;;1.63;;
62543;SDS011;48597;49.030;1.822;2023-06-26T13:03:29;2.30;;;1.30;;
62543;SDS011;48597;49.030;1.822;2023-06-26T13:05:54;2.88;;;1.42;;
62543;SDS011;48597;49.030;1.822;2023-06-26T13:08:20;5.03;;;1.50;;
62543;SDS011;48597;49.030;1.822;2023-06-26T13:10:45;2.95;;;1.30;;
62543;SDS011;48597;49.030;1.822;2023-06-26T13:13:11;4.88;;;1.42;;
62543;SDS011;48597;49.030;1.822;2023-06-26T13:15:36;2.03;;;1.17;;
62543;SDS011;48597;49.030;1.822;2023-06-26T13:18:02;2.90;;;1.20;;
62543;SDS011;48597;49.030;1.822;2023-06-26T13:20:27;2.30;;;1.10;;
62543;SDS011;48597;49.030;1.822;2023-06-26T13:22:53;2.15;;;1.30;;
62543;SDS011;48597;49.030;1.822;2023-06-26T13:25:19;2.58;;;1.30;;
62543;SDS011;48597;49.030;1.822;2023-06-26T13:27:45;3.90;;;1.40;;
62543;SDS011;48597;49.030;1.822;2023-06-26T13:30:11;1.95;;;1.20;;
62543;SDS011;48597;49.030;1.822;2023-06-26T13:32:37;3.60;;;1.20;;
62543;SDS011;48597;49.030;1.822;2023-06-26T13:35:02;2.83;;;1.15;;
62543;SDS011;48597;49.030;1.822;2023-06-26T13:37:29;3.33;;;1.20;;
62543;SDS011;48597;49.030;1.822;2023-06-26T13:39:54;2.63;;;1.13;;
62543;SDS011;48597;49.030;1.822;2023-06-26T13:42:21;2.33;;;1.20;;
62543;SDS011;48597;49.030;1.822;2023-06-26T13:44:46;3.47;;;1.25;;
62543;SDS011;48597;49.030;1.822;2023-06-26T13:47:12;3.53;;;1.00;;
62543;SDS011;48597;49.030;1.822;2023-06-26T13:49:39;3.55;;;1.38;;
62543;SDS011;48597;49.030;1.822;2023-06-26T13:52:05;3.60;;;1.20;;
62543;SDS011;48597;49.030;1.822;2023-06-26T13:54:33;1.30;;;0.98;;
62543;SDS011;48597;49.030;1.822;2023-06-26T13:57:00;1.25;;;0.98;;
62543;SDS011;48597;49.030;1.822;2023-06-26T13:59:27;1.75;;;1.02;;
62543;SDS011;48597;49.030;1.822;2023-06-26T14:01:53;1.45;;;0.88;;
62543;SDS011;48597;49.030;1.822;2023-06-26T14:04:18;0.90;;;0.90;;
62543;SDS011;48597;49.030;1.822;2023-06-26T14:06:44;1.02;;;1.00;;
62543;SDS011;48597;49.030;1.822;2023-06-26T14:09:10;1.20;;;1.10;;
62543;SDS011;48597;49.030;1.822;2023-06-26T14:11:36;1.88;;;1.10;;
62543;SDS011;48597;49.030;1.822;2023-06-26T14:14:01;1.35;;;0.90;;
62543;SDS011;48597;49.030;1.822;2023-06-26T14:16:27;0.90;;;0.90;;
62543;SDS011;48597;49.030;1.822;2023-06-26T14:18:53;1.52;;;1.00;;
62543;SDS011;48597;49.030;1.822;2023-06-26T14:21:19;2.20;;;1.00;;
62543;SDS011;48597;49.030;1.822;2023-06-26T14:23:45;1.70;;;1.13;;
62543;SDS011;48597;49.030;1.822;2023-06-26T14:26:10;1.85;;;1.00;;
62543;SDS011;48597;49.030;1.822;2023-06-26T14:28:36;1.48;;;0.90;;
62543;SDS011;48597;49.030;1.822;2023-06-26T14:31:03;1.50;;;1.10;;
62543;SDS011;48597;49.030;1.822;2023-06-26T14:33:28;2.40;;;0.90;;
62543;SDS011;48597;49.030;1.822;2023-06-26T14:35:55;0.95;;;0.80;;
62543;SDS011;48597;49.030;1.822;2023-06-26T14:38:20;1.00;;;0.90;;
62543;SDS011;48597;49.030;1.822;2023-06-26T14:40:46;1.30;;;1.00;;
62543;SDS011;48597;49.030;1.822;2023-06-26T14:43:11;2.20;;;1.02;;
62543;SDS011;48597;49.030;1.822;2023-06-26T14:45:37;1.20;;;1.00;;
62543;SDS011;48597;49.030;1.822;2023-06-26T14:48:02;1.05;;;0.90;;
62543;SDS011;48597;49.030;1.822;2023-06-26T14:50:27;1.48;;;1.05;;
62543;SDS011;48597;49.030;1.822;2023-06-26T14:52:53;0.90;;;0.90;;
62543;SDS011;48597;49.030;1.822;2023-06-26T14:55:18;1.05;;;0.95;;
62543;SDS011;48597;49.030;1.822;2023-06-26T14:57:44;1.80;;;0.90;;
62543;SDS011;48597;49.030;1.822;2023-06-26T15:00:10;1.33;;;0.90;;
62543;SDS011;48597;49.030;1.822;2023-06-26T15:02:35;2.10;;;1.00;;
62543;SDS011;48597;49.030;1.822;2023-06-26T15:05:01;1.58;;;0.98;;
62543;SDS011;48597;49.030;1.822;2023-06-26T15:07:26;1.27;;;1.00;;
62543;SDS011;48597;49.030;1.822;2023-06-26T15:09:52;1.27;;;1.10;;